PWSweather.com
Personal Weather Stations
Station Observations
ALMOSTER
Urb. Mas Carreras, AlmosterES 43393

Urb. Mas CarrerasAlmosterES 43393

Lat: 41.1908333333, Lon: 1.1086111111

Elevation: 836.6

Station Type: Davis Vantage Pro 2

http://www.meteoalmoster.net

High Low Average
Temperature 64.6°F18.1°C 51.6°F10.9°C 59.6°F15.3°C
Dew Point 46.6°F8.1°C 38.1°F3.4°C 41.9°F5.5°C
Winds 20.0 mph 32.2 kmh 7.0 mph 11.3 kmh 13.0 mph NE20.9 kmh NE
Wind Gusts 38.0 mph61.2 kmh 14.0 mph22.5 kmh 23.0 mph37.0 kmh
Humidity 78% 40% 53%
Pressure 30.20 in1022.7 mb 30.06 in1017.9 mb -
Precipitation 0.31 in7.9 mm - -
Hour Temp Dew Point Humidity Winds Wind Gusts Pressure Precip Precip Rate Daily Precip Total
12:00 AM 61.0°F16.1°C 40.1°F4.5°C 46% 7.0 mph ENE11.3 kmh ENE 15.0 mph24.1 kmh 30.20 in1022.7 mb 0.00 in0.0 mm 0.00 in0.0 mm 0.00 in0.0 mm
12:30 AM 60.4°F15.8°C 41.2°F5.1°C 49% 11.0 mph NE17.7 kmh NE 21.0 mph33.8 kmh 30.18 in1022.0 mb 0.00 in0.0 mm 0.00 in0.0 mm 0.00 in0.0 mm
01:00 AM 59.7°F15.4°C 41.5°F5.3°C 51% 9.0 mph ENE14.5 kmh ENE 17.0 mph27.4 kmh 30.19 in1022.4 mb 0.00 in0.0 mm 0.00 in0.0 mm 0.00 in0.0 mm
01:30 AM 59.9°F15.5°C 41.2°F5.1°C 50% 9.0 mph ENE14.5 kmh ENE 17.0 mph27.4 kmh 30.19 in1022.4 mb 0.00 in0.0 mm 0.00 in0.0 mm 0.00 in0.0 mm
02:00 AM 59.9°F15.5°C 40.6°F4.8°C 49% 13.0 mph NE20.9 kmh NE 23.0 mph37.0 kmh 30.18 in1022.0 mb 0.00 in0.0 mm 0.00 in0.0 mm 0.00 in0.0 mm
02:30 AM 59.5°F15.3°C 40.5°F4.7°C 49% 11.0 mph NE17.7 kmh NE 19.0 mph30.6 kmh 30.16 in1021.3 mb 0.00 in0.0 mm 0.00 in0.0 mm 0.00 in0.0 mm
03:00 AM 59.7°F15.4°C 40.1°F4.5°C 48% 11.0 mph NE17.7 kmh NE 18.0 mph29.0 kmh 30.16 in1021.3 mb 0.00 in0.0 mm 0.00 in0.0 mm 0.00 in0.0 mm
03:30 AM 59.7°F15.4°C 39.9°F4.4°C 48% 9.0 mph NE14.5 kmh NE 18.0 mph29.0 kmh 30.16 in1021.3 mb 0.00 in0.0 mm 0.00 in0.0 mm 0.00 in0.0 mm
04:00 AM 59.5°F15.3°C 39.9°F4.4°C 48% 7.0 mph NE11.3 kmh NE 17.0 mph27.4 kmh 30.15 in1021.0 mb 0.00 in0.0 mm 0.00 in0.0 mm 0.00 in0.0 mm
04:30 AM 60.3°F15.7°C 39.9°F4.4°C 47% 12.0 mph NE19.3 kmh NE 19.0 mph30.6 kmh 30.14 in1020.7 mb 0.00 in0.0 mm 0.00 in0.0 mm 0.00 in0.0 mm
05:00 AM 60.4°F15.8°C 40.1°F4.5°C 47% 13.0 mph NE20.9 kmh NE 25.0 mph40.2 kmh 30.12 in1020.0 mb 0.00 in0.0 mm 0.00 in0.0 mm 0.00 in0.0 mm
05:30 AM 61.0°F16.1°C 40.1°F4.5°C 46% 14.0 mph NE22.5 kmh NE 23.0 mph37.0 kmh 30.11 in1019.6 mb 0.00 in0.0 mm 0.00 in0.0 mm 0.00 in0.0 mm
06:00 AM 61.5°F16.4°C 39.4°F4.1°C 44% 14.0 mph NE22.5 kmh NE 24.0 mph38.6 kmh 30.11 in1019.6 mb 0.00 in0.0 mm 0.00 in0.0 mm 0.00 in0.0 mm
06:30 AM 61.5°F16.4°C 39.4°F4.1°C 44% 12.0 mph NE19.3 kmh NE 22.0 mph35.4 kmh 30.12 in1020.0 mb 0.00 in0.0 mm 0.00 in0.0 mm 0.00 in0.0 mm
07:00 AM 61.5°F16.4°C 39.4°F4.1°C 44% 12.0 mph NE19.3 kmh NE 20.0 mph32.2 kmh 30.14 in1020.7 mb 0.00 in0.0 mm 0.00 in0.0 mm 0.00 in0.0 mm
07:30 AM 61.3°F16.3°C 39.2°F4.0°C 44% 11.0 mph NE17.7 kmh NE 18.0 mph29.0 kmh 30.13 in1020.3 mb 0.00 in0.0 mm 0.00 in0.0 mm 0.00 in0.0 mm
08:00 AM 61.9°F16.6°C 38.5°F3.6°C 42% 13.0 mph NE20.9 kmh NE 25.0 mph40.2 kmh 30.14 in1020.7 mb 0.00 in0.0 mm 0.00 in0.0 mm 0.00 in0.0 mm
08:30 AM 62.2°F16.8°C 38.1°F3.4°C 41% 11.0 mph ENE17.7 kmh ENE 20.0 mph32.2 kmh 30.14 in1020.7 mb 0.00 in0.0 mm 0.00 in0.0 mm 0.00 in0.0 mm
09:00 AM 62.2°F16.8°C 39.6°F4.2°C 43% 9.0 mph ENE14.5 kmh ENE 17.0 mph27.4 kmh 30.13 in1020.3 mb 0.00 in0.0 mm 0.00 in0.0 mm 0.00 in0.0 mm
09:30 AM 62.8°F17.1°C 39.9°F4.4°C 43% 10.0 mph ENE16.1 kmh ENE 22.0 mph35.4 kmh 30.12 in1020.0 mb 0.00 in0.0 mm 0.00 in0.0 mm 0.00 in0.0 mm
10:00 AM 63.0°F17.2°C 40.1°F4.5°C 43% 13.0 mph ENE20.9 kmh ENE 22.0 mph35.4 kmh 30.12 in1020.0 mb 0.00 in0.0 mm 0.00 in0.0 mm 0.00 in0.0 mm
10:30 AM 62.8°F17.1°C 41.0°F5.0°C 45% 10.0 mph E16.1 kmh E 19.0 mph30.6 kmh 30.14 in1020.7 mb 0.00 in0.0 mm 0.00 in0.0 mm 0.00 in0.0 mm
11:00 AM 62.8°F17.1°C 41.7°F5.4°C 46% 12.0 mph E19.3 kmh E 23.0 mph37.0 kmh 30.14 in1020.7 mb 0.00 in0.0 mm 0.00 in0.0 mm 0.00 in0.0 mm
11:30 AM 63.5°F17.5°C 39.9°F4.4°C 42% 12.0 mph E19.3 kmh E 22.0 mph35.4 kmh 30.14 in1020.7 mb 0.00 in0.0 mm 0.00 in0.0 mm 0.00 in0.0 mm
12:00 PM 63.7°F17.6°C 39.6°F4.2°C 41% 15.0 mph E24.1 kmh E 27.0 mph43.5 kmh 30.13 in1020.3 mb 0.00 in0.0 mm 0.00 in0.0 mm 0.00 in0.0 mm
12:30 PM 64.6°F18.1°C 39.6°F4.2°C 40% 16.0 mph ENE25.7 kmh ENE 30.0 mph48.3 kmh 30.12 in1020.0 mb 0.00 in0.0 mm 0.00 in0.0 mm 0.00 in0.0 mm
01:00 PM 64.2°F17.9°C 39.4°F4.1°C 40% 16.0 mph ENE25.7 kmh ENE 30.0 mph48.3 kmh 30.09 in1019.0 mb 0.00 in0.0 mm 0.00 in0.0 mm 0.00 in0.0 mm
01:30 PM 64.2°F17.9°C 41.2°F5.1°C 43% 14.0 mph ENE22.5 kmh ENE 23.0 mph37.0 kmh 30.09 in1019.0 mb 0.00 in0.0 mm 0.00 in0.0 mm 0.00 in0.0 mm
02:00 PM 63.9°F17.7°C 43.3°F6.3°C 47% 13.0 mph ENE20.9 kmh ENE 23.0 mph37.0 kmh 30.09 in1019.0 mb 0.00 in0.0 mm 0.00 in0.0 mm 0.00 in0.0 mm
02:30 PM 64.0°F17.8°C 42.8°F6.0°C 46% 14.0 mph E22.5 kmh E 25.0 mph40.2 kmh 30.09 in1019.0 mb 0.00 in0.0 mm 0.00 in0.0 mm 0.00 in0.0 mm
03:00 PM 63.7°F17.6°C 42.4°F5.8°C 46% 11.0 mph E17.7 kmh E 23.0 mph37.0 kmh 30.08 in1018.6 mb 0.00 in0.0 mm 0.00 in0.0 mm 0.00 in0.0 mm
03:30 PM 63.7°F17.6°C 42.4°F5.8°C 46% 11.0 mph ENE17.7 kmh ENE 21.0 mph33.8 kmh 30.06 in1017.9 mb 0.00 in0.0 mm 0.00 in0.0 mm 0.00 in0.0 mm
04:00 PM 63.0°F17.2°C 43.0°F6.1°C 48% 10.0 mph E16.1 kmh E 25.0 mph40.2 kmh 30.06 in1017.9 mb 0.00 in0.0 mm 0.00 in0.0 mm 0.00 in0.0 mm
04:30 PM 58.8°F14.9°C 46.6°F8.1°C 64% 7.0 mph E11.3 kmh E 14.0 mph22.5 kmh 30.07 in1018.3 mb 0.01 in0.3 mm 0.02 in0.5 mm 0.01 in0.3 mm
05:00 PM 58.5°F14.7°C 45.5°F7.5°C 62% 12.0 mph ENE19.3 kmh ENE 22.0 mph35.4 kmh 30.08 in1018.6 mb 0.01 in0.3 mm 0.00 in0.0 mm 0.01 in0.3 mm
05:30 PM 57.4°F14.1°C 46.0°F7.8°C 66% 10.0 mph NE16.1 kmh NE 17.0 mph27.4 kmh 30.09 in1019.0 mb 0.00 in0.0 mm 0.00 in0.0 mm 0.01 in0.3 mm
06:00 PM 55.2°F12.9°C 45.1°F7.3°C 69% 11.0 mph NE17.7 kmh NE 23.0 mph37.0 kmh 30.10 in1019.3 mb 0.03 in0.8 mm 0.06 in1.5 mm 0.04 in1.0 mm
06:30 PM 54.9°F12.7°C 44.1°F6.7°C 67% 15.0 mph NE24.1 kmh NE 29.0 mph46.7 kmh 30.10 in1019.3 mb 0.04 in1.0 mm 0.02 in0.5 mm 0.05 in1.3 mm
07:00 PM 53.6°F12.0°C 44.4°F6.9°C 71% 13.0 mph NNE20.9 kmh NNE 22.0 mph35.4 kmh 30.11 in1019.6 mb 0.04 in1.0 mm 0.00 in0.0 mm 0.08 in2.0 mm
07:30 PM 52.9°F11.6°C 45.1°F7.3°C 75% 14.0 mph NE22.5 kmh NE 26.0 mph41.8 kmh 30.11 in1019.6 mb 0.09 in2.3 mm 0.10 in2.5 mm 0.13 in3.3 mm
08:00 PM 52.3°F11.3°C 45.0°F7.2°C 76% 15.0 mph NNE24.1 kmh NNE 27.0 mph43.5 kmh 30.11 in1019.6 mb 0.12 in3.0 mm 0.06 in1.5 mm 0.20 in5.1 mm
08:30 PM 51.6°F10.9°C 45.0°F7.2°C 78% 19.0 mph NNE30.6 kmh NNE 32.0 mph51.5 kmh 30.10 in1019.3 mb 0.12 in3.0 mm 0.00 in0.0 mm 0.26 in6.6 mm
09:00 PM 52.2°F11.2°C 45.1°F7.3°C 77% 20.0 mph NNE32.2 kmh NNE 38.0 mph61.2 kmh 30.10 in1019.3 mb 0.09 in2.3 mm 0.00 in0.0 mm 0.28 in7.1 mm
09:30 PM 52.7°F11.5°C 44.6°F7.0°C 74% 19.0 mph NNE30.6 kmh NNE 37.0 mph59.5 kmh 30.09 in1019.0 mb 0.05 in1.3 mm 0.00 in0.0 mm 0.31 in7.9 mm
10:00 PM 52.9°F11.6°C 45.1°F7.3°C 75% 17.0 mph NNE27.4 kmh NNE 31.0 mph49.9 kmh 30.08 in1018.6 mb 0.02 in0.5 mm 0.00 in0.0 mm 0.31 in7.9 mm
10:30 PM 54.1°F12.3°C 44.6°F7.0°C 70% 15.0 mph NNE24.1 kmh NNE 26.0 mph41.8 kmh 30.08 in1018.6 mb 0.01 in0.3 mm 0.00 in0.0 mm 0.31 in7.9 mm
11:00 PM 55.0°F12.8°C 44.2°F6.8°C 67% 17.0 mph NNE27.4 kmh NNE 30.0 mph48.3 kmh 30.07 in1018.3 mb 0.01 in0.3 mm 0.00 in0.0 mm 0.31 in7.9 mm
11:30 PM 55.2°F12.9°C 44.1°F6.7°C 66% 14.0 mph NNE22.5 kmh NNE 29.0 mph46.7 kmh 30.06 in1017.9 mb 0.00 in0.0 mm 0.00 in0.0 mm 0.31 in7.9 mm